Brooklyn, Michigan
Current Conditions -  °F | °C
As of 10:56 PM on Tuesday 21 Oct 2014 (Local Time) from KJXN Reporting Station
Broken Clouds Broken Clouds  
Wind Chill: 36°   Ceiling: 5000
Heat Index: 39°   Visibility: 10mi
Dew Point: 35°   Wind: 5mph
Humidity: 86%   Direction: 340°NNW
Pressure: 30.24"   Gusts: NA
Location:  42.11°N, 84.25°W
Report Text: KJXN 220256Z 34004KT 10SM BKN050 04/02 A3024 RMK AO2 SLP246 T00390017 52016
Loading
Personal Weather Stations






























Interactive Weather Map
Tropical Storm Tracking
New forecast layout! Learn more

10-Day Weather Forecast

Advertisements
Track Severe Weather on mobile